Time;durP1;ratioP1;P1;durP2;ratioP2;P2;SDS_P1;SDS_P2;PMS_P1;PMS_P2;Temp;Humidity;BMP_temperature;BMP_pressure;BME280_temperature;BME280_humidity;BME280_pressure;Samples;Min_cycle;Max_cycle;Signal;HPM_P1;HPM_P2
2023/07/10 00:00:27;;;;;;;3.40;3.17;;;;;;;18.88;69.70;63952.44;5128984;28;20195;-83
2023/07/10 00:02:56;;;;;;;3.35;3.05;;;;;;;18.65;70.68;63931.03;5129639;28;20226;-84
2023/07/10 00:05:24;;;;;;;2.83;2.65;;;;;;;18.69;70.71;63943.44;5128644;28;20269;-81
2023/07/10 00:07:51;;;;;;;3.22;2.92;;;;;;;18.75;71.04;63941.44;5130410;28;20243;-85
2023/07/10 00:10:18;;;;;;;3.22;2.92;;;;;;;18.35;71.25;63898.22;5125933;28;20389;-82
2023/07/10 00:12:47;;;;;;;4.18;3.13;;;;;;;18.70;71.58;63933.66;5130359;28;20299;-82
2023/07/10 00:15:18;;;;;;;3.10;2.90;;;;;;;18.61;72.00;63924.81;5133226;28;20254;-84
2023/07/10 00:17:45;;;;;;;3.25;3.05;;;;;;;18.58;72.19;63918.56;5129245;28;20245;-82
2023/07/10 00:20:17;;;;;;;5.05;3.15;;;;;;;18.63;72.57;63931.53;5122117;28;20195;-84
2023/07/10 00:22:44;;;;;;;3.05;2.95;;;;;;;18.57;73.27;63920.63;5124027;28;20241;-83
2023/07/10 00:25:15;;;;;;;3.40;3.20;;;;;;;18.57;74.64;63917.53;5128780;28;20270;-84
2023/07/10 00:27:43;;;;;;;3.13;2.72;;;;;;;18.56;75.32;63921.66;5116500;28;20199;-82
2023/07/10 00:30:21;;;;;;;3.40;3.20;;;;;;;18.55;74.49;63921.13;5131455;28;20194;-84
2023/07/10 00:32:51;;;;;;;2.80;2.70;;;;;;;18.48;75.48;63908.16;5129252;28;20194;-83
2023/07/10 00:35:19;;;;;;;3.60;3.40;;;;;;;18.24;75.93;63886.22;5133072;28;20190;-82
2023/07/10 00:37:49;;;;;;;3.22;3.10;;;;;;;18.36;76.70;63901.81;5131652;28;20235;-83
2023/07/10 00:40:23;;;;;;;3.05;2.85;;;;;;;18.39;77.01;63901.84;5133478;28;20356;-83
2023/07/10 00:42:56;;;;;;;3.55;3.25;;;;;;;18.22;77.25;63887.22;5133225;28;20218;-83
2023/07/10 00:45:24;;;;;;;4.95;2.88;;;;;;;18.32;77.36;63897.16;5131538;28;20199;-84
2023/07/10 00:48:04;;;;;;;3.63;3.25;;;;;;;18.03;76.81;63866.94;5127233;28;20191;-84
2023/07/10 00:50:37;;;;;;;4.70;3.28;;;;;;;18.15;77.70;63879.44;5134519;28;20304;-83
2023/07/10 00:53:12;;;;;;;3.05;2.65;;;;;;;18.18;78.04;63882.56;5133591;28;20209;-83
2023/07/10 00:55:40;;;;;;;3.22;2.80;;;;;;;18.15;77.65;63874.28;5126397;28;20300;-85
2023/07/10 00:58:19;;;;;;;3.20;2.90;;;;;;;18.14;77.83;63878.38;5116193;28;20235;-83
2023/07/10 01:01:03;;;;;;;3.50;3.30;;;;;;;17.77;78.17;63837.28;5111918;28;20274;-82
2023/07/10 01:03:31;;;;;;;3.17;2.88;;;;;;;18.13;78.27;63874.75;5115601;28;20222;-83
2023/07/10 01:06:02;;;;;;;3.45;3.25;;;;;;;18.10;78.02;63869.56;5132102;28;20211;-83
2023/07/10 01:08:31;;;;;;;3.67;3.47;;;;;;;18.08;78.46;63872.13;5133079;28;20206;-82
2023/07/10 01:10:59;;;;;;;3.25;3.05;;;;;;;18.05;78.98;63866.44;5134039;28;20222;-82
2023/07/10 01:13:27;;;;;;;3.10;2.90;;;;;;;18.05;79.27;63866.44;5130928;28;20406;-82
2023/07/10 01:15:54;;;;;;;4.60;3.10;;;;;;;18.05;79.62;63869.03;5134756;28;20210;-84
2023/07/10 01:18:25;;;;;;;3.13;3.03;;;;;;;18.06;79.59;63870.06;5130920;28;20227;-84
2023/07/10 01:21:02;;;;;;;3.13;2.90;;;;;;;17.95;79.10;63859.09;5134207;28;20221;-84
2023/07/10 01:23:29;;;;;;;3.33;2.95;;;;;;;17.89;79.82;63855.44;5130826;28;20197;-85
2023/07/10 01:26:03;;;;;;;4.65;3.40;;;;;;;18.02;79.76;63865.88;5133942;28;20231;-82
2023/07/10 01:28:33;;;;;;;3.13;2.92;;;;;;;18.02;80.67;63865.88;5134309;28;20187;-84
2023/07/10 01:31:04;;;;;;;4.93;3.58;;;;;;;17.89;80.82;63850.28;5129807;28;20219;-82
2023/07/10 01:33:36;;;;;;;3.17;3.00;;;;;;;17.80;81.05;63837.81;5117683;28;20206;-85
2023/07/10 01:36:07;;;;;;;3.08;2.97;;;;;;;17.90;81.20;63851.31;5130201;28;20227;-84
2023/07/10 01:38:38;;;;;;;4.68;3.05;;;;;;;17.88;81.21;63856.97;5131841;28;20289;-84
2023/07/10 01:41:17;;;;;;;3.33;3.05;;;;;;;17.86;80.55;63846.66;5133683;28;20214;-83
2023/07/10 01:43:44;;;;;;;4.43;3.38;;;;;;;17.78;81.54;63835.72;5131219;28;20191;-83
2023/07/10 01:46:22;;;;;;;3.55;3.25;;;;;;;17.87;82.44;63845.09;5125357;28;20215;-81
2023/07/10 01:48:52;;;;;;;3.78;3.53;;;;;;;17.79;82.69;63841.94;5131952;28;20398;-84
2023/07/10 01:51:22;;;;;;;3.38;3.08;;;;;;;17.81;81.21;63844.53;5114414;28;20222;-83
2023/07/10 01:53:49;;;;;;;3.33;3.10;;;;;;;17.70;81.32;63833.06;5114278;28;20194;-84
2023/07/10 01:56:18;;;;;;;2.78;2.67;;;;;;;17.83;81.94;63846.09;5125789;28;20225;-83
2023/07/10 01:58:45;;;;;;;3.45;3.17;;;;;;;17.79;82.33;63842.44;5130617;28;20242;-83
2023/07/10 02:01:13;;;;;;;3.28;3.08;;;;;;;17.68;83.33;63833.56;5126630;28;20219;-82
2023/07/10 02:03:40;;;;;;;3.83;3.63;;;;;;;17.50;83.54;63801.94;5111390;28;20196;-83
2023/07/10 02:06:07;;;;;;;5.45;3.50;;;;;;;17.71;83.73;63828.44;5120135;28;20217;-85
2023/07/10 02:08:35;;;;;;;3.72;3.53;;;;;;;17.66;84.72;63828.91;5121323;28;20259;-83
2023/07/10 02:11:03;;;;;;;3.65;3.35;;;;;;;17.62;84.65;63821.66;5124454;28;20244;-83
2023/07/10 02:13:30;;;;;;;3.70;3.40;;;;;;;17.43;84.09;63801.84;5132716;28;20522;-84
2023/07/10 02:16:03;;;;;;;4.20;3.22;;;;;;;17.51;84.03;63812.75;5133780;28;20282;-83
2023/07/10 02:18:30;;;;;;;4.57;3.53;;;;;;;17.31;85.60;63792.44;5119862;28;20451;-85
2023/07/10 02:20:58;;;;;;;3.47;3.28;;;;;;;17.54;85.72;63815.88;5133884;28;20221;-82
2023/07/10 02:23:25;;;;;;;3.67;3.33;;;;;;;17.41;87.73;63794.63;5136841;28;20193;-83
2023/07/10 02:25:53;;;;;;;3.75;3.45;;;;;;;17.23;87.82;63784.63;5129139;28;20229;-84
2023/07/10 02:28:21;;;;;;;6.60;3.83;;;;;;;17.29;88.83;63790.88;5121352;28;20213;-83
2023/07/10 02:30:49;;;;;;;3.33;3.13;;;;;;;17.38;90.02;63804.88;5144355;27;20272;-84
2023/07/10 02:33:18;;;;;;;3.90;3.50;;;;;;;17.30;91.91;63793.97;5143487;27;20182;-84
2023/07/10 02:35:48;;;;;;;3.67;3.47;;;;;;;17.26;91.93;63784.66;5122876;28;20211;-83
2023/07/10 02:38:16;;;;;;;4.70;3.25;;;;;;;16.95;92.67;63754.97;5134499;28;20231;-84
2023/07/10 02:40:44;;;;;;;3.50;3.25;;;;;;;17.16;93.28;63777.34;5132636;28;20288;-84
2023/07/10 02:43:12;;;;;;;3.55;3.35;;;;;;;17.09;94.39;63766.97;5131518;28;20194;-83
2023/07/10 02:45:40;;;;;;;3.78;3.47;;;;;;;16.96;94.93;63753.44;5130054;28;20210;-82
2023/07/10 02:48:08;;;;;;;4.43;3.55;;;;;;;17.04;95.24;63762.28;5134669;28;20206;-86
2023/07/10 02:50:35;;;;;;;4.13;3.83;;;;;;;17.04;96.34;63764.84;5128557;28;20295;-83
2023/07/10 02:53:02;;;;;;;3.80;3.60;;;;;;;16.95;98.92;63752.91;5114335;28;20260;-84
2023/07/10 02:55:30;;;;;;;4.35;3.58;;;;;;;16.81;98.97;63746.06;5132732;28;20225;-83
2023/07/10 02:57:57;;;;;;;4.25;3.95;;;;;;;16.86;99.03;63743.03;5129711;28;20195;-81
2023/07/10 03:00:26;;;;;;;4.03;3.72;;;;;;;16.86;98.54;63743.53;5120788;28;20221;-84
2023/07/10 03:02:54;;;;;;;3.88;3.47;;;;;;;16.66;99.52;63719.63;5122662;28;20268;-83
2023/07/10 03:05:21;;;;;;;3.78;3.47;;;;;;;16.79;100.00;63733.19;5133772;28;20222;-84
2023/07/10 03:07:48;;;;;;;3.72;3.45;;;;;;;16.70;100.00;63726.91;5131826;28;20191;-83
2023/07/10 03:10:15;;;;;;;3.80;3.50;;;;;;;16.77;100.00;63734.19;5131681;27;20242;-84
2023/07/10 03:12:43;;;;;;;4.05;3.85;;;;;;;16.77;100.00;63736.75;5115579;28;20187;-84
2023/07/10 03:15:11;;;;;;;5.82;4.03;;;;;;;16.81;100.00;63738.34;5113723;28;20196;-82
2023/07/10 03:17:40;;;;;;;3.92;3.15;;;;;;;16.60;100.00;63721.13;5112517;28;20242;-86
2023/07/10 03:20:08;;;;;;;3.63;3.42;;;;;;;16.68;100.00;63724.28;5127571;28;20234;-84
2023/07/10 03:22:35;;;;;;;4.10;3.80;;;;;;;16.82;100.00;63733.72;5110707;28;20566;-84
2023/07/10 03:25:02;;;;;;;3.83;3.63;;;;;;;16.84;100.00;63743.53;5114356;28;20219;-82
2023/07/10 03:27:29;;;;;;;3.95;3.53;;;;;;;16.88;100.00;63748.19;5126297;27;20455;-83
2023/07/10 03:29:57;;;;;;;7.13;3.97;;;;;;;16.94;100.00;63751.34;5130464;28;20198;-84
2023/07/10 03:32:24;;;;;;;4.03;3.72;;;;;;;16.94;100.00;63748.78;5118757;28;20238;-83
2023/07/10 03:34:53;;;;;;;6.45;4.50;;;;;;;17.00;100.00;63758.13;5131257;28;20255;-83
2023/07/10 03:37:22;;;;;;;3.95;3.70;;;;;;;17.02;100.00;63760.19;5132943;28;20214;-85
2023/07/10 03:39:49;;;;;;;4.75;3.45;;;;;;;16.97;100.00;63751.91;5130143;28;20290;-84
2023/07/10 03:42:16;;;;;;;4.18;3.72;;;;;;;17.04;100.00;63764.84;5124538;28;20432;-83
2023/07/10 03:44:43;;;;;;;4.47;4.05;;;;;;;16.97;100.00;63760.16;5131735;28;20194;-84
2023/07/10 03:47:10;;;;;;;5.18;3.75;;;;;;;17.09;100.00;63769.53;5131631;28;20227;-84
2023/07/10 03:49:37;;;;;;;3.75;3.40;;;;;;;17.24;100.00;63780.00;5131606;28;20190;-85
2023/07/10 03:52:06;;;;;;;4.13;3.85;;;;;;;17.31;100.00;63789.84;5126616;28;20223;-84
2023/07/10 03:54:34;;;;;;;4.50;4.10;;;;;;;17.42;100.00;63800.78;5132619;28;20232;-84
2023/07/10 03:57:01;;;;;;;4.78;4.07;;;;;;;17.53;100.00;63814.84;5119485;28;20323;-84
2023/07/10 03:59:28;;;;;;;4.57;4.28;;;;;;;17.51;99.70;63813.28;5114582;28;20219;-84
2023/07/10 04:01:55;;;;;;;4.65;4.35;;;;;;;17.58;100.00;63818.00;5112015;28;20276;-83
2023/07/10 04:04:22;;;;;;;4.13;3.80;;;;;;;17.73;99.83;63833.63;5130401;28;20205;-84
2023/07/10 04:06:49;;;;;;;4.60;4.07;;;;;;;17.81;99.95;63839.38;5127768;28;20219;-82
2023/07/10 04:09:18;;;;;;;4.95;4.47;;;;;;;17.77;96.33;63842.94;5124678;28;20194;-83
2023/07/10 04:11:45;;;;;;;5.72;4.18;;;;;;;17.99;95.44;63862.75;5128561;28;20215;-83
2023/07/10 04:14:12;;;;;;;4.50;4.20;;;;;;;18.00;93.00;63861.22;5127615;28;20480;-83
2023/07/10 04:16:41;;;;;;;4.20;3.95;;;;;;;17.89;95.47;63852.34;5121378;28;20243;-81
2023/07/10 04:19:09;;;;;;;5.18;4.22;;;;;;;17.80;98.00;63843.50;5123950;28;20222;-82
2023/07/10 04:21:36;;;;;;;6.40;4.47;;;;;;;17.96;98.40;63854.47;5129017;28;20230;-82
2023/07/10 04:24:05;;;;;;;7.00;5.63;;;;;;;18.00;97.17;63861.22;5128172;28;20220;-83
2023/07/10 04:26:35;;;;;;;4.78;4.43;;;;;;;17.99;97.79;63860.72;5126961;28;20228;-83
2023/07/10 04:29:04;;;;;;;5.45;4.93;;;;;;;18.01;99.01;63862.28;5129294;28;20198;-82
2023/07/10 04:31:32;;;;;;;8.50;4.78;;;;;;;18.07;98.84;63871.63;5130059;28;20437;-84
2023/07/10 04:33:59;;;;;;;6.57;5.50;;;;;;;17.97;99.08;63855.53;5114483;28;20200;-84
2023/07/10 04:36:27;;;;;;;7.80;5.15;;;;;;;18.23;98.59;63888.28;5121389;28;20226;-84
2023/07/10 04:38:54;;;;;;;5.38;4.88;;;;;;;18.36;97.87;63898.75;5129813;28;20255;-82
2023/07/10 04:41:24;;;;;;;7.45;5.05;;;;;;;18.57;96.55;63920.13;5130358;28;20468;-83
2023/07/10 04:43:53;;;;;;;5.32;4.82;;;;;;;18.75;96.76;63936.28;5117195;28;20195;-84
2023/07/10 04:46:22;;;;;;;6.28;5.30;;;;;;;18.76;95.99;63940.44;5117603;28;20218;-83
2023/07/10 04:48:49;;;;;;;10.93;6.20;;;;;;;18.65;97.39;63928.97;5127559;28;20190;-84
2023/07/10 04:51:19;;;;;;;8.52;4.78;;;;;;;18.60;97.45;63921.19;5127278;28;20215;-84
2023/07/10 04:53:47;;;;;;;5.60;5.00;;;;;;;18.93;94.19;63955.56;5127202;28;20245;-83
2023/07/10 04:56:16;;;;;;;5.70;5.22;;;;;;;18.67;90.46;63928.50;5132073;28;20234;-83
2023/07/10 04:58:50;;;;;;;7.00;5.13;;;;;;;19.14;91.04;63982.09;5134112;28;20287;-83
2023/07/10 05:01:20;;;;;;;5.75;4.97;;;;;;;19.22;87.20;63988.38;5116161;28;20227;-82
2023/07/10 05:03:47;;;;;;;5.80;4.40;;;;;;;19.33;81.46;63999.88;5114432;28;20196;-84
2023/07/10 05:06:18;;;;;;;5.35;4.88;;;;;;;19.42;81.49;64009.28;5119000;28;20217;-84
2023/07/10 05:08:45;;;;;;;5.43;5.10;;;;;;;19.45;84.27;64011.88;5126744;28;20235;-84
2023/07/10 05:11:13;;;;;;;6.63;4.57;;;;;;;19.53;84.98;64015.56;5131742;27;20254;-83
2023/07/10 05:13:40;;;;;;;9.00;5.55;;;;;;;19.57;86.18;64026.47;5128960;28;20241;-85
2023/07/10 05:16:08;;;;;;;6.05;4.55;;;;;;;19.89;86.60;64057.25;5129339;28;20255;-83
2023/07/10 05:18:37;;;;;;;8.75;5.60;;;;;;;19.90;82.23;64061.41;5128509;28;20212;-84
2023/07/10 05:21:05;;;;;;;8.95;5.38;;;;;;;19.90;83.01;64056.22;5125709;28;20223;-83
2023/07/10 05:23:32;;;;;;;5.43;4.93;;;;;;;20.08;83.28;64077.59;5133930;28;20206;-84
2023/07/10 05:26:02;;;;;;;6.72;5.15;;;;;;;20.29;80.01;64099.00;5133032;28;20210;-84
2023/07/10 05:28:29;;;;;;;4.70;4.25;;;;;;;20.30;81.03;64097.47;5122069;28;20214;-82
2023/07/10 05:30:59;;;;;;;4.65;4.30;;;;;;;20.33;80.14;64106.28;5128108;28;20229;-82
2023/07/10 05:33:26;;;;;;;6.07;4.72;;;;;;;20.36;78.24;64106.81;5129756;28;20198;-83
2023/07/10 05:35:57;;;;;;;5.22;4.80;;;;;;;20.70;73.38;64141.81;5132434;28;20303;-84
2023/07/10 05:38:25;;;;;;;5.20;4.75;;;;;;;20.62;74.93;64138.63;5133483;28;20468;-84
2023/07/10 05:40:53;;;;;;;4.65;4.20;;;;;;;20.49;75.91;64117.28;5134014;28;20230;-84
2023/07/10 05:43:20;;;;;;;5.97;5.32;;;;;;;20.61;74.87;64137.59;5126464;28;20204;-84
2023/07/10 05:45:48;;;;;;;6.10;5.47;;;;;;;20.92;72.96;64164.78;5127377;28;20206;-83
2023/07/10 05:48:15;;;;;;;5.25;4.75;;;;;;;21.13;72.31;64186.19;5132226;28;20236;-83
2023/07/10 05:50:44;;;;;;;6.20;4.80;;;;;;;21.06;73.88;64181.47;5133064;28;20215;-83
2023/07/10 05:53:14;;;;;;;5.30;4.80;;;;;;;21.09;74.52;64182.03;5128506;28;20537;-83
2023/07/10 05:55:45;;;;;;;7.00;5.28;;;;;;;21.14;71.95;64197.63;5134676;28;20244;-84
2023/07/10 05:58:12;;;;;;;9.55;5.10;;;;;;;21.21;73.20;64194.56;5133485;28;20187;-82
2023/07/10 06:00:39;;;;;;;7.70;4.57;;;;;;;21.15;77.89;64191.41;5130473;28;20432;-84
2023/07/10 06:03:06;;;;;;;9.40;5.07;;;;;;;21.26;75.70;64202.38;5131262;28;20198;-84
2023/07/10 06:05:33;;;;;;;7.15;5.05;;;;;;;21.23;76.57;64199.22;5133801;28;20195;-84
2023/07/10 06:08:01;;;;;;;6.75;5.40;;;;;;;21.38;73.82;64215.41;5133409;28;20252;-81
2023/07/10 06:10:33;;;;;;;6.30;5.10;;;;;;;21.55;72.01;64232.66;5131485;28;20363;-81
2023/07/10 06:13:03;;;;;;;6.45;5.15;;;;;;;21.69;71.88;64244.69;5128876;28;20471;-81
2023/07/10 06:15:31;;;;;;;6.28;4.63;;;;;;;21.75;70.81;64256.66;5121235;28;20190;-83
2023/07/10 06:17:58;;;;;;;9.13;5.25;;;;;;;21.77;69.84;64250.47;5114905;28;20277;-82
2023/07/10 06:20:26;;;;;;;8.32;5.38;;;;;;;21.96;67.44;64272.94;5134483;28;20253;-82
2023/07/10 06:22:54;;;;;;;5.35;4.75;;;;;;;21.80;67.58;64258.78;5115543;28;20241;-84
2023/07/10 06:25:21;;;;;;;6.45;5.40;;;;;;;21.84;66.64;64262.97;5123949;28;20198;-85
2023/07/10 06:27:50;;;;;;;11.75;6.03;;;;;;;21.76;68.21;64257.19;5131772;28;20253;-84
2023/07/10 06:30:19;;;;;;;5.65;4.55;;;;;;;21.94;67.57;64272.91;5129988;28;20209;-83
2023/07/10 06:32:46;;;;;;;8.48;5.20;;;;;;;21.85;67.23;64264.00;5125657;28;20257;-84
2023/07/10 06:35:14;;;;;;;9.23;5.22;;;;;;;21.94;66.14;64272.91;5131014;28;20194;-83
2023/07/10 06:37:42;;;;;;;9.57;5.55;;;;;;;21.96;66.62;64272.41;5128776;28;20199;-82
2023/07/10 06:40:14;;;;;;;14.00;5.65;;;;;;;22.02;66.46;64279.19;5127978;28;20282;-83
2023/07/10 06:42:43;;;;;;;5.40;4.88;;;;;;;22.30;68.25;64307.94;5124384;27;20203;-83
2023/07/10 06:45:13;;;;;;;5.80;5.22;;;;;;;22.51;67.31;64327.28;5123944;28;20201;-83
2023/07/10 06:47:43;;;;;;;5.35;4.90;;;;;;;22.72;67.03;64351.88;5125350;28;20535;-82
2023/07/10 06:50:12;;;;;;;7.13;5.13;;;;;;;22.80;64.75;64360.75;5134874;28;20242;-81
2023/07/10 06:52:41;;;;;;;6.72;4.70;;;;;;;22.91;61.40;64371.72;5136443;28;20573;-83
2023/07/10 06:55:14;;;;;;;11.90;4.50;;;;;;;22.88;63.27;64369.09;5125082;28;20261;-84
2023/07/10 06:57:44;;;;;;;5.10;4.70;;;;;;;23.10;63.42;64385.88;5130768;28;20397;-83
2023/07/10 07:00:15;;;;;;;7.97;4.50;;;;;;;23.06;62.92;64387.41;5126329;28;20230;-84
2023/07/10 07:02:43;;;;;;;10.20;4.97;;;;;;;23.10;63.68;64393.69;5130690;28;20190;-83
2023/07/10 07:05:11;;;;;;;4.30;3.88;;;;;;;23.04;57.62;64387.41;5130748;28;20201;-82
2023/07/10 07:07:39;;;;;;;10.20;4.68;;;;;;;23.12;60.68;64391.09;5135362;28;20214;-83
2023/07/10 07:10:12;;;;;;;4.43;4.07;;;;;;;23.07;57.50;64383.28;5132430;28;20203;-81
2023/07/10 07:12:41;;;;;;;7.43;4.25;;;;;;;23.12;57.53;64396.31;5124521;28;20225;-81
2023/07/10 07:15:09;;;;;;;4.82;4.05;;;;;;;23.04;58.09;64387.91;5124797;28;20531;-82
2023/07/10 07:17:38;;;;;;;5.10;4.00;;;;;;;23.20;60.21;64401.53;5123980;28;20226;-86
2023/07/10 07:20:06;;;;;;;6.20;4.03;;;;;;;23.27;56.81;64411.47;5131740;28;20228;-81
2023/07/10 07:22:34;;;;;;;4.20;3.80;;;;;;;23.30;55.09;64412.00;5128153;28;20321;-83
2023/07/10 07:25:01;;;;;;;4.45;3.83;;;;;;;23.66;55.31;64449.69;5132557;28;20186;-83
2023/07/10 07:27:31;;;;;;;4.28;3.97;;;;;;;23.49;54.28;64435.00;5129006;28;20218;-84
2023/07/10 07:29:59;;;;;;;7.75;3.53;;;;;;;23.59;53.45;64442.88;5130208;28;20214;-83
2023/07/10 07:32:26;;;;;;;7.30;3.75;;;;;;;23.63;54.18;64449.66;5129857;28;20243;-83
2023/07/10 07:34:55;;;;;;;4.13;3.30;;;;;;;23.74;52.20;64461.19;5120777;28;20205;-82
2023/07/10 07:37:22;;;;;;;3.88;3.45;;;;;;;23.46;51.57;64431.88;5132040;28;20271;-84
2023/07/10 07:39:50;;;;;;;3.90;3.60;;;;;;;23.58;50.83;64444.44;5131654;28;20294;-81
2023/07/10 07:42:17;;;;;;;3.75;3.50;;;;;;;23.54;52.64;64437.66;5131241;28;20252;-83
2023/07/10 07:44:44;;;;;;;3.70;3.50;;;;;;;23.70;51.28;64454.41;5122003;28;20202;-82
2023/07/10 07:47:12;;;;;;;5.22;3.78;;;;;;;23.87;53.15;64474.78;5110924;28;20207;-82
2023/07/10 07:49:39;;;;;;;6.75;4.25;;;;;;;23.85;53.96;64470.09;5112944;28;20209;-84
2023/07/10 07:52:08;;;;;;;3.90;3.50;;;;;;;23.82;52.09;64471.63;5115045;28;20294;-81
2023/07/10 07:54:35;;;;;;;3.22;3.08;;;;;;;23.85;50.93;64469.56;5123754;28;20205;-82
2023/07/10 07:57:02;;;;;;;3.75;3.55;;;;;;;23.84;51.58;64474.25;5131452;28;20240;-82
2023/07/10 07:59:29;;;;;;;8.07;3.83;;;;;;;23.99;52.43;64487.38;5129589;28;20202;-82
2023/07/10 08:01:57;;;;;;;3.88;3.63;;;;;;;24.04;51.01;64492.06;5132234;28;20234;-83
2023/07/10 08:04:24;;;;;;;4.20;3.90;;;;;;;23.90;51.42;64477.41;5130583;28;20179;-82
2023/07/10 08:06:54;;;;;;;3.63;3.33;;;;;;;24.03;52.57;64491.03;5130605;28;20214;-82
2023/07/10 08:09:22;;;;;;;4.35;3.90;;;;;;;24.12;53.10;64502.53;5131963;28;20183;-82
2023/07/10 08:11:50;;;;;;;4.35;3.53;;;;;;;24.31;51.45;64517.22;5115762;28;20230;-84
2023/07/10 08:14:18;;;;;;;4.35;3.72;;;;;;;24.34;52.44;64520.34;5127947;28;20194;-83
2023/07/10 08:16:45;;;;;;;3.70;3.30;;;;;;;24.37;51.47;64531.28;5131652;28;20218;-82
2023/07/10 08:19:15;;;;;;;4.65;3.47;;;;;;;24.53;50.88;64542.84;5128875;28;20206;-84
2023/07/10 08:21:45;;;;;;;3.78;3.47;;;;;;;24.83;49.90;64571.69;5127882;28;20246;-84
2023/07/10 08:24:12;;;;;;;4.63;4.20;;;;;;;24.74;51.30;64567.47;5132197;28;20223;-81
2023/07/10 08:26:41;;;;;;;4.00;3.72;;;;;;;24.64;50.19;64549.16;5129525;28;20206;-80
2023/07/10 08:29:24;;;;;;;4.28;3.30;;;;;;;24.61;50.75;64546.53;5127587;28;20209;-80
2023/07/10 08:31:53;;;;;;;3.92;3.20;;;;;;;24.54;50.93;64549.09;5113645;28;20226;-83
2023/07/10 08:34:21;;;;;;;5.93;3.25;;;;;;;24.84;50.37;64575.31;5118541;28;20224;-83
2023/07/10 08:36:48;;;;;;;3.72;3.50;;;;;;;24.80;48.32;64568.53;5129768;28;20214;-82
2023/07/10 08:39:16;;;;;;;4.95;3.50;;;;;;;24.59;50.78;64547.03;5127693;28;20202;-81
2023/07/10 08:41:44;;;;;;;3.60;3.40;;;;;;;24.95;48.48;64586.84;5129715;28;20543;-83
2023/07/10 08:44:12;;;;;;;3.00;2.90;;;;;;;25.08;49.55;64597.84;5132017;28;20214;-83
2023/07/10 08:46:39;;;;;;;4.30;3.67;;;;;;;25.14;47.99;64604.66;5129905;28;20217;-84
2023/07/10 08:49:13;;;;;;;3.70;3.50;;;;;;;25.30;47.03;64623.50;5126454;28;20216;-84
2023/07/10 08:51:48;;;;;;;2.92;2.72;;;;;;;25.55;46.27;64651.81;5131259;28;20222;-83
2023/07/10 08:54:18;;;;;;;3.30;3.20;;;;;;;25.26;47.27;64616.72;5130939;28;20228;-82
2023/07/10 08:56:52;;;;;;;3.67;3.47;;;;;;;25.20;47.81;64615.13;5129427;28;20243;-82
2023/07/10 08:59:41;;;;;;;3.45;3.13;;;;;;;25.22;47.57;64614.59;5115018;28;20206;-84
2023/07/10 09:02:20;;;;;;;3.72;3.42;;;;;;;25.47;47.20;64635.59;5125107;28;20452;-82
2023/07/10 09:04:50;;;;;;;3.72;3.30;;;;;;;25.57;45.80;64651.31;5135855;28;20195;-84
2023/07/10 09:07:18;;;;;;;3.92;3.50;;;;;;;25.77;46.98;64669.66;5126289;28;20222;-82
2023/07/10 09:09:50;;;;;;;3.45;3.08;;;;;;;25.51;45.62;64640.31;5136451;28;20191;-81
2023/07/10 09:12:24;;;;;;;3.15;2.95;;;;;;;25.64;47.01;64663.84;5132495;28;20282;-81
2023/07/10 09:14:55;;;;;;;5.13;2.95;;;;;;;25.79;45.88;64672.28;5134197;28;20232;-82
2023/07/10 09:17:33;;;;;;;4.55;4.18;;;;;;;25.46;44.89;64637.69;5132317;28;20219;-84
2023/07/10 09:20:03;;;;;;;3.33;3.13;;;;;;;25.57;45.80;64648.69;5135046;28;20222;-81
2023/07/10 09:22:32;;;;;;;4.00;3.00;;;;;;;25.47;43.98;64638.22;5133709;28;20211;-82
2023/07/10 09:24:59;;;;;;;3.10;3.00;;;;;;;25.42;43.96;64633.50;5131361;28;20191;-84
2023/07/10 09:27:30;;;;;;;3.47;3.28;;;;;;;25.81;44.45;64676.44;5130858;28;20259;-82
2023/07/10 09:29:59;;;;;;;5.63;3.40;;;;;;;26.09;43.42;64708.94;5121908;28;20221;-84
2023/07/10 09:32:26;;;;;;;4.15;3.75;;;;;;;26.27;43.18;64724.69;5123005;28;20278;-84
2023/07/10 09:34:54;;;;;;;3.15;2.95;;;;;;;26.42;43.11;64740.41;5129824;28;20258;-81
2023/07/10 09:37:24;;;;;;;4.88;3.60;;;;;;;26.12;42.72;64706.88;5130876;28;20222;-80
2023/07/10 09:39:50;;;;;;;3.55;3.30;;;;;;;26.00;43.92;64696.91;5132185;28;20191;-81
2023/07/10 09:42:20;;;;;;;3.42;3.20;;;;;;;26.03;43.05;64694.84;5132143;28;20240;-83
2023/07/10 09:44:56;;;;;;;3.30;3.00;;;;;;;26.31;43.13;64726.28;5133089;28;20275;-83
2023/07/10 09:47:23;;;;;;;3.53;3.17;;;;;;;26.59;42.14;64755.09;5134987;28;20210;-83
2023/07/10 09:49:57;;;;;;;2.58;2.47;;;;;;;26.35;40.04;64732.56;5133883;28;20250;-83
2023/07/10 09:52:27;;;;;;;3.35;3.13;;;;;;;26.49;39.64;64744.63;5120060;27;20231;-82
2023/07/10 09:55:12;;;;;;;3.17;2.92;;;;;;;26.17;42.45;64714.75;5125578;28;20191;-83
2023/07/10 09:57:51;;;;;;;4.10;3.25;;;;;;;26.04;40.92;64695.88;5133577;28;20262;-83
2023/07/10 10:00:20;;;;;;;2.97;2.78;;;;;;;26.44;39.46;64742.50;5128235;28;20279;-85
2023/07/10 10:02:53;;;;;;;3.90;3.60;;;;;;;26.73;38.21;64775.56;5121016;28;20384;-83
2023/07/10 10:05:21;;;;;;;2.97;2.88;;;;;;;26.80;39.12;64777.66;5113056;28;20199;-81
2023/07/10 10:07:50;;;;;;;3.60;3.05;;;;;;;26.59;39.56;64753.03;5112095;28;20195;-83
2023/07/10 10:10:24;;;;;;;3.83;2.97;;;;;;;26.09;40.65;64698.50;5126660;28;20198;-82
2023/07/10 10:12:56;;;;;;;2.95;2.85;;;;;;;26.13;39.50;64704.78;5125071;28;20206;-82
2023/07/10 10:15:37;;;;;;;3.35;2.72;;;;;;;26.23;37.47;64719.97;5126430;28;20226;-82
2023/07/10 10:18:07;;;;;;;4.28;2.83;;;;;;;26.44;37.12;64742.50;5119348;28;20198;-82
2023/07/10 10:20:36;;;;;;;2.92;2.78;;;;;;;26.76;37.39;64773.50;5119042;28;20226;-82
2023/07/10 10:23:03;;;;;;;4.75;2.90;;;;;;;26.86;36.69;64788.66;5121476;28;20199;-82
2023/07/10 10:25:35;;;;;;;2.72;2.53;;;;;;;26.89;34.56;64786.59;5118921;28;20209;-83
2023/07/10 10:28:17;;;;;;;2.97;2.22;;;;;;;26.64;31.99;64760.88;5129780;28;20205;-82
2023/07/10 10:30:49;;;;;;;2.72;2.63;;;;;;;26.16;31.48;64711.06;5127902;28;20229;-81
2023/07/10 10:33:24;;;;;;;2.63;2.53;;;;;;;26.10;33.16;64704.78;5116025;28;20341;-82
2023/07/10 10:35:57;;;;;;;2.63;2.50;;;;;;;26.12;35.36;64709.50;5122007;28;20211;-84
2023/07/10 10:38:43;;;;;;;3.13;2.83;;;;;;;26.36;34.67;64734.13;5126914;28;20198;-83
2023/07/10 10:41:46;;;;;;;2.80;2.70;;;;;;;26.59;36.48;64757.72;5124611;28;20223;-82
2023/07/10 10:44:29;;;;;;;3.00;2.90;;;;;;;26.82;35.83;64785.00;5042908;28;20220;-81
2023/07/10 10:47:16;;;;;;;2.70;2.53;;;;;;;27.06;35.66;64802.31;5043865;28;20218;-81
2023/07/10 10:50:08;;;;;;;2.50;2.40;;;;;;;26.84;34.06;64787.09;5098432;28;20205;-82
2023/07/10 10:52:43;;;;;;;7.22;2.70;;;;;;;26.73;35.00;64775.56;5123261;28;20223;-83
2023/07/10 10:55:30;;;;;;;3.30;3.00;;;;;;;26.84;34.91;64784.47;5115204;28;20210;-84
2023/07/10 10:58:12;;;;;;;2.83;2.70;;;;;;;26.18;34.29;64715.25;5116627;28;20203;-82
2023/07/10 11:00:52;;;;;;;2.97;2.78;;;;;;;26.46;35.46;64741.47;5118533;28;20276;-83
2023/07/10 11:03:30;;;;;;;3.08;2.88;;;;;;;26.28;35.75;64725.75;5116957;28;20210;-83
2023/07/10 11:06:02;;;;;;;4.22;3.03;;;;;;;26.12;35.70;64708.97;5120636;28;20219;-82
2023/07/10 11:08:37;;;;;;;4.70;2.78;;;;;;;26.52;33.82;64753.00;5129255;28;20205;-82
2023/07/10 11:11:15;;;;;;;5.80;2.67;;;;;;;26.53;34.37;64751.41;5122294;28;20274;-80
2023/07/10 11:13:42;;;;;;;3.08;2.88;;;;;;;26.69;34.38;64766.16;5121343;28;20198;-82
2023/07/10 11:16:11;;;;;;;3.42;3.22;;;;;;;26.80;35.38;64777.16;5117685;28;20569;-81
2023/07/10 11:18:40;;;;;;;3.38;3.17;;;;;;;26.62;35.18;64761.41;5120106;28;20229;-83
2023/07/10 11:21:08;;;;;;;3.20;2.92;;;;;;;26.43;36.75;64744.09;5118956;28;20288;-82
2023/07/10 11:23:44;;;;;;;3.03;2.83;;;;;;;26.72;34.98;64771.91;5121177;28;20206;-80
2023/07/10 11:26:17;;;;;;;3.50;3.20;;;;;;;27.11;31.63;64812.81;5122277;28;20263;-82
2023/07/10 11:28:51;;;;;;;3.08;2.90;;;;;;;27.32;33.28;64834.31;5119374;28;20234;-81
2023/07/10 11:31:35;;;;;;;3.03;2.90;;;;;;;27.26;34.83;64828.56;5120266;28;20223;-81
2023/07/10 11:34:50;;;;;;;3.00;2.90;;;;;;;27.12;34.23;64815.94;5122900;28;20191;-81
2023/07/10 11:38:04;;;;;;;2.83;2.58;;;;;;;26.96;32.92;64799.69;5118107;28;20426;-82
2023/07/10 11:40:47;;;;;;;3.13;2.92;;;;;;;27.03;33.80;64799.19;5125055;28;20214;-82
2023/07/10 11:43:57;;;;;;;2.63;2.47;;;;;;;27.04;34.80;64799.72;5128698;28;20199;-83
2023/07/10 11:46:32;;;;;;;2.80;2.60;;;;;;;27.24;32.82;64823.31;5118263;28;20410;-82